sensor_id;sensor_type;location;lat;lon;timestamp;P1;durP1;ratioP1;P2;durP2;ratioP2
12896;SDS011;6516;35.028;32.372;2024-01-30T00:00:06;7.00;;;4.32;;
12896;SDS011;6516;35.028;32.372;2024-01-30T00:02:37;8.60;;;5.30;;
12896;SDS011;6516;35.028;32.372;2024-01-30T00:05:14;7.55;;;4.70;;
12896;SDS011;6516;35.028;32.372;2024-01-30T00:07:44;8.23;;;5.22;;
12896;SDS011;6516;35.028;32.372;2024-01-30T00:10:12;8.50;;;5.35;;
12896;SDS011;6516;35.028;32.372;2024-01-30T00:12:44;8.50;;;5.17;;
12896;SDS011;6516;35.028;32.372;2024-01-30T00:15:15;9.13;;;5.47;;
12896;SDS011;6516;35.028;32.372;2024-01-30T00:17:45;7.80;;;5.25;;
12896;SDS011;6516;35.028;32.372;2024-01-30T00:20:17;8.10;;;5.32;;
12896;SDS011;6516;35.028;32.372;2024-01-30T00:22:45;9.05;;;5.03;;
12896;SDS011;6516;35.028;32.372;2024-01-30T00:25:14;7.68;;;5.07;;
12896;SDS011;6516;35.028;32.372;2024-01-30T00:27:42;8.38;;;5.50;;
12896;SDS011;6516;35.028;32.372;2024-01-30T00:30:12;8.27;;;5.03;;
12896;SDS011;6516;35.028;32.372;2024-01-30T00:32:44;7.55;;;5.00;;
12896;SDS011;6516;35.028;32.372;2024-01-30T00:35:20;8.52;;;5.60;;
12896;SDS011;6516;35.028;32.372;2024-01-30T00:37:51;14.33;;;7.63;;
12896;SDS011;6516;35.028;32.372;2024-01-30T00:40:25;14.25;;;6.75;;
12896;SDS011;6516;35.028;32.372;2024-01-30T00:42:55;9.63;;;5.70;;
12896;SDS011;6516;35.028;32.372;2024-01-30T00:45:24;8.30;;;5.18;;
12896;SDS011;6516;35.028;32.372;2024-01-30T00:47:54;9.25;;;5.50;;
12896;SDS011;6516;35.028;32.372;2024-01-30T00:50:26;8.32;;;5.15;;
12896;SDS011;6516;35.028;32.372;2024-01-30T00:52:58;8.52;;;4.95;;
12896;SDS011;6516;35.028;32.372;2024-01-30T00:55:26;8.15;;;5.03;;
12896;SDS011;6516;35.028;32.372;2024-01-30T00:57:59;7.97;;;5.50;;
12896;SDS011;6516;35.028;32.372;2024-01-30T01:00:28;7.30;;;5.00;;
12896;SDS011;6516;35.028;32.372;2024-01-30T01:02:59;7.00;;;4.70;;
12896;SDS011;6516;35.028;32.372;2024-01-30T01:05:29;8.93;;;5.20;;
12896;SDS011;6516;35.028;32.372;2024-01-30T01:08:04;7.13;;;4.75;;
12896;SDS011;6516;35.028;32.372;2024-01-30T01:10:41;7.97;;;5.43;;
12896;SDS011;6516;35.028;32.372;2024-01-30T01:13:14;7.55;;;5.03;;
12896;SDS011;6516;35.028;32.372;2024-01-30T01:15:50;9.07;;;4.93;;
12896;SDS011;6516;35.028;32.372;2024-01-30T01:18:23;7.68;;;5.05;;
12896;SDS011;6516;35.028;32.372;2024-01-30T01:20:53;8.00;;;5.35;;
12896;SDS011;6516;35.028;32.372;2024-01-30T01:23:28;10.07;;;5.25;;
12896;SDS011;6516;35.028;32.372;2024-01-30T01:25:58;8.63;;;5.40;;
12896;SDS011;6516;35.028;32.372;2024-01-30T01:28:51;9.70;;;5.43;;
12896;SDS011;6516;35.028;32.372;2024-01-30T01:31:22;8.13;;;5.03;;
12896;SDS011;6516;35.028;32.372;2024-01-30T01:33:54;8.15;;;5.30;;
12896;SDS011;6516;35.028;32.372;2024-01-30T01:36:28;7.95;;;4.90;;
12896;SDS011;6516;35.028;32.372;2024-01-30T01:38:59;8.50;;;5.70;;
12896;SDS011;6516;35.028;32.372;2024-01-30T01:41:33;7.50;;;5.28;;
12896;SDS011;6516;35.028;32.372;2024-01-30T01:44:05;9.30;;;5.65;;
12896;SDS011;6516;35.028;32.372;2024-01-30T01:46:42;8.02;;;5.13;;
12896;SDS011;6516;35.028;32.372;2024-01-30T01:49:17;8.43;;;5.05;;
12896;SDS011;6516;35.028;32.372;2024-01-30T01:51:47;7.45;;;4.80;;
12896;SDS011;6516;35.028;32.372;2024-01-30T01:54:16;8.38;;;5.43;;
12896;SDS011;6516;35.028;32.372;2024-01-30T01:56:47;8.25;;;5.60;;
12896;SDS011;6516;35.028;32.372;2024-01-30T01:59:23;7.35;;;5.13;;
12896;SDS011;6516;35.028;32.372;2024-01-30T02:01:59;8.10;;;5.80;;
12896;SDS011;6516;35.028;32.372;2024-01-30T02:04:33;7.35;;;5.30;;
12896;SDS011;6516;35.028;32.372;2024-01-30T02:07:04;7.80;;;4.93;;
12896;SDS011;6516;35.028;32.372;2024-01-30T02:09:35;8.80;;;5.88;;
12896;SDS011;6516;35.028;32.372;2024-01-30T02:12:09;9.32;;;5.70;;
12896;SDS011;6516;35.028;32.372;2024-01-30T02:14:45;7.65;;;4.57;;
12896;SDS011;6516;35.028;32.372;2024-01-30T02:17:23;8.25;;;5.55;;
12896;SDS011;6516;35.028;32.372;2024-01-30T02:19:55;8.53;;;5.50;;
12896;SDS011;6516;35.028;32.372;2024-01-30T02:25:38;11.88;;;5.50;;
12896;SDS011;6516;35.028;32.372;2024-01-30T02:28:25;9.75;;;5.30;;
12896;SDS011;6516;35.028;32.372;2024-01-30T02:31:01;7.40;;;4.75;;
12896;SDS011;6516;35.028;32.372;2024-01-30T02:33:29;7.90;;;4.90;;
12896;SDS011;6516;35.028;32.372;2024-01-30T02:35:58;7.40;;;4.85;;
12896;SDS011;6516;35.028;32.372;2024-01-30T02:38:33;7.88;;;5.03;;
12896;SDS011;6516;35.028;32.372;2024-01-30T02:41:01;8.85;;;5.25;;
12896;SDS011;6516;35.028;32.372;2024-01-30T02:43:38;7.97;;;4.95;;
12896;SDS011;6516;35.028;32.372;2024-01-30T02:46:12;8.73;;;5.05;;
12896;SDS011;6516;35.028;32.372;2024-01-30T02:48:43;7.15;;;4.75;;
12896;SDS011;6516;35.028;32.372;2024-01-30T02:51:14;7.15;;;4.70;;
12896;SDS011;6516;35.028;32.372;2024-01-30T02:53:46;6.65;;;4.47;;
12896;SDS011;6516;35.028;32.372;2024-01-30T02:56:16;8.40;;;4.70;;
12896;SDS011;6516;35.028;32.372;2024-01-30T02:59:03;6.90;;;4.90;;
12896;SDS011;6516;35.028;32.372;2024-01-30T03:01:31;7.22;;;4.85;;
12896;SDS011;6516;35.028;32.372;2024-01-30T03:04:07;7.10;;;4.70;;
12896;SDS011;6516;35.028;32.372;2024-01-30T03:06:44;8.85;;;4.47;;
12896;SDS011;6516;35.028;32.372;2024-01-30T03:09:19;7.18;;;4.90;;
12896;SDS011;6516;35.028;32.372;2024-01-30T03:11:53;6.97;;;4.53;;
12896;SDS011;6516;35.028;32.372;2024-01-30T03:14:36;6.57;;;4.43;;
12896;SDS011;6516;35.028;32.372;2024-01-30T03:17:09;7.45;;;4.60;;
12896;SDS011;6516;35.028;32.372;2024-01-30T03:19:45;6.40;;;4.50;;
12896;SDS011;6516;35.028;32.372;2024-01-30T03:22:17;7.30;;;4.60;;
12896;SDS011;6516;35.028;32.372;2024-01-30T03:24:54;6.68;;;4.22;;
12896;SDS011;6516;35.028;32.372;2024-01-30T03:27:32;6.70;;;4.40;;
12896;SDS011;6516;35.028;32.372;2024-01-30T03:30:02;6.20;;;4.40;;
12896;SDS011;6516;35.028;32.372;2024-01-30T03:32:39;7.15;;;4.20;;
12896;SDS011;6516;35.028;32.372;2024-01-30T03:35:09;6.38;;;4.32;;
12896;SDS011;6516;35.028;32.372;2024-01-30T03:37:37;8.48;;;4.65;;
12896;SDS011;6516;35.028;32.372;2024-01-30T03:40:11;6.70;;;4.57;;
12896;SDS011;6516;35.028;32.372;2024-01-30T03:42:40;6.22;;;4.25;;
12896;SDS011;6516;35.028;32.372;2024-01-30T03:45:25;6.30;;;4.30;;
12896;SDS011;6516;35.028;32.372;2024-01-30T03:48:06;6.53;;;4.30;;
12896;SDS011;6516;35.028;32.372;2024-01-30T03:50:41;5.93;;;4.13;;
12896;SDS011;6516;35.028;32.372;2024-01-30T03:53:10;5.85;;;4.13;;
12896;SDS011;6516;35.028;32.372;2024-01-30T03:55:40;6.47;;;4.30;;
12896;SDS011;6516;35.028;32.372;2024-01-30T03:58:15;7.30;;;4.20;;
12896;SDS011;6516;35.028;32.372;2024-01-30T04:00:45;6.03;;;3.95;;
12896;SDS011;6516;35.028;32.372;2024-01-30T04:03:18;6.17;;;4.03;;
12896;SDS011;6516;35.028;32.372;2024-01-30T04:05:53;5.35;;;3.63;;
12896;SDS011;6516;35.028;32.372;2024-01-30T04:08:28;7.47;;;4.30;;
12896;SDS011;6516;35.028;32.372;2024-01-30T04:11:06;6.28;;;4.22;;
12896;SDS011;6516;35.028;32.372;2024-01-30T04:13:41;6.93;;;4.13;;
12896;SDS011;6516;35.028;32.372;2024-01-30T04:16:25;5.73;;;3.60;;
12896;SDS011;6516;35.028;32.372;2024-01-30T04:19:03;6.05;;;4.10;;
12896;SDS011;6516;35.028;32.372;2024-01-30T04:21:35;6.10;;;3.88;;
12896;SDS011;6516;35.028;32.372;2024-01-30T04:24:08;6.82;;;3.95;;
12896;SDS011;6516;35.028;32.372;2024-01-30T04:26:43;5.88;;;3.97;;
12896;SDS011;6516;35.028;32.372;2024-01-30T04:29:11;5.90;;;4.10;;
12896;SDS011;6516;35.028;32.372;2024-01-30T04:31:42;6.13;;;3.53;;
12896;SDS011;6516;35.028;32.372;2024-01-30T04:34:14;5.85;;;3.70;;
12896;SDS011;6516;35.028;32.372;2024-01-30T04:36:47;5.60;;;3.40;;
12896;SDS011;6516;35.028;32.372;2024-01-30T04:39:23;5.93;;;4.30;;
12896;SDS011;6516;35.028;32.372;2024-01-30T04:41:56;5.63;;;4.00;;
12896;SDS011;6516;35.028;32.372;2024-01-30T04:44:24;6.18;;;4.13;;
12896;SDS011;6516;35.028;32.372;2024-01-30T04:47:02;6.57;;;4.28;;
12896;SDS011;6516;35.028;32.372;2024-01-30T04:49:40;5.78;;;4.00;;
12896;SDS011;6516;35.028;32.372;2024-01-30T04:52:12;6.07;;;4.05;;
12896;SDS011;6516;35.028;32.372;2024-01-30T04:54:44;7.30;;;4.20;;
12896;SDS011;6516;35.028;32.372;2024-01-30T04:57:23;7.63;;;4.68;;
12896;SDS011;6516;35.028;32.372;2024-01-30T04:59:57;7.43;;;4.78;;
12896;SDS011;6516;35.028;32.372;2024-01-30T05:02:28;8.38;;;5.40;;
12896;SDS011;6516;35.028;32.372;2024-01-30T05:05:06;7.93;;;5.40;;
12896;SDS011;6516;35.028;32.372;2024-01-30T05:07:40;7.45;;;5.20;;
12896;SDS011;6516;35.028;32.372;2024-01-30T05:10:10;9.10;;;4.97;;
12896;SDS011;6516;35.028;32.372;2024-01-30T05:12:43;8.07;;;4.82;;
12896;SDS011;6516;35.028;32.372;2024-01-30T05:15:18;9.27;;;5.43;;
12896;SDS011;6516;35.028;32.372;2024-01-30T05:17:50;7.38;;;5.00;;
12896;SDS011;6516;35.028;32.372;2024-01-30T05:20:20;7.50;;;4.70;;
12896;SDS011;6516;35.028;32.372;2024-01-30T05:23:07;8.18;;;4.28;;
12896;SDS011;6516;35.028;32.372;2024-01-30T05:25:37;5.60;;;3.30;;
12896;SDS011;6516;35.028;32.372;2024-01-30T05:28:11;5.80;;;3.20;;
12896;SDS011;6516;35.028;32.372;2024-01-30T05:30:39;5.45;;;3.38;;
12896;SDS011;6516;35.028;32.372;2024-01-30T05:33:09;5.37;;;3.10;;
12896;SDS011;6516;35.028;32.372;2024-01-30T05:35:47;7.75;;;3.05;;
12896;SDS011;6516;35.028;32.372;2024-01-30T05:38:16;5.43;;;3.30;;
12896;SDS011;6516;35.028;32.372;2024-01-30T05:40:44;6.18;;;3.42;;
12896;SDS011;6516;35.028;32.372;2024-01-30T05:43:13;5.78;;;3.20;;
12896;SDS011;6516;35.028;32.372;2024-01-30T05:45:46;6.03;;;3.47;;
12896;SDS011;6516;35.028;32.372;2024-01-30T05:48:19;6.73;;;3.20;;
12896;SDS011;6516;35.028;32.372;2024-01-30T05:50:47;5.45;;;3.28;;
12896;SDS011;6516;35.028;32.372;2024-01-30T05:53:17;5.85;;;3.20;;
12896;SDS011;6516;35.028;32.372;2024-01-30T05:55:50;6.78;;;3.40;;
12896;SDS011;6516;35.028;32.372;2024-01-30T05:58:22;7.72;;;3.88;;
12896;SDS011;6516;35.028;32.372;2024-01-30T06:00:54;7.57;;;3.80;;
12896;SDS011;6516;35.028;32.372;2024-01-30T06:03:27;6.90;;;4.20;;
12896;SDS011;6516;35.028;32.372;2024-01-30T06:05:59;6.18;;;3.58;;
12896;SDS011;6516;35.028;32.372;2024-01-30T06:08:29;8.13;;;4.53;;
12896;SDS011;6516;35.028;32.372;2024-01-30T06:11:05;6.88;;;3.90;;
12896;SDS011;6516;35.028;32.372;2024-01-30T06:13:39;6.53;;;3.90;;
12896;SDS011;6516;35.028;32.372;2024-01-30T06:16:09;6.22;;;3.85;;
12896;SDS011;6516;35.028;32.372;2024-01-30T06:18:46;7.03;;;3.78;;
12896;SDS011;6516;35.028;32.372;2024-01-30T06:21:21;6.82;;;4.03;;
12896;SDS011;6516;35.028;32.372;2024-01-30T06:23:49;7.03;;;3.60;;
12896;SDS011;6516;35.028;32.372;2024-01-30T06:26:19;6.37;;;3.80;;
12896;SDS011;6516;35.028;32.372;2024-01-30T06:28:52;6.63;;;4.00;;
12896;SDS011;6516;35.028;32.372;2024-01-30T06:31:28;6.57;;;4.00;;
12896;SDS011;6516;35.028;32.372;2024-01-30T06:34:01;7.13;;;3.70;;
12896;SDS011;6516;35.028;32.372;2024-01-30T06:36:31;6.35;;;3.97;;
12896;SDS011;6516;35.028;32.372;2024-01-30T06:39:00;6.80;;;4.07;;
12896;SDS011;6516;35.028;32.372;2024-01-30T06:41:33;9.82;;;3.90;;
12896;SDS011;6516;35.028;32.372;2024-01-30T06:44:12;6.32;;;3.88;;
12896;SDS011;6516;35.028;32.372;2024-01-30T06:46:45;6.45;;;3.85;;
12896;SDS011;6516;35.028;32.372;2024-01-30T06:49:16;6.35;;;3.70;;
12896;SDS011;6516;35.028;32.372;2024-01-30T06:51:47;7.93;;;3.30;;
12896;SDS011;6516;35.028;32.372;2024-01-30T06:54:17;6.88;;;3.13;;
12896;SDS011;6516;35.028;32.372;2024-01-30T06:56:45;7.32;;;3.40;;
12896;SDS011;6516;35.028;32.372;2024-01-30T06:59:32;8.88;;;3.75;;
12896;SDS011;6516;35.028;32.372;2024-01-30T07:01:59;7.25;;;3.63;;
12896;SDS011;6516;35.028;32.372;2024-01-30T07:04:30;5.87;;;3.30;;
12896;SDS011;6516;35.028;32.372;2024-01-30T07:07:04;13.95;;;3.10;;
12896;SDS011;6516;35.028;32.372;2024-01-30T07:09:39;6.70;;;3.35;;
12896;SDS011;6516;35.028;32.372;2024-01-30T07:12:20;7.85;;;3.03;;
12896;SDS011;6516;35.028;32.372;2024-01-30T07:14:54;8.63;;;2.80;;
12896;SDS011;6516;35.028;32.372;2024-01-30T07:17:24;6.13;;;2.93;;
12896;SDS011;6516;35.028;32.372;2024-01-30T07:20:01;9.55;;;2.88;;
12896;SDS011;6516;35.028;32.372;2024-01-30T07:22:34;4.85;;;2.50;;
12896;SDS011;6516;35.028;32.372;2024-01-30T07:25:09;5.47;;;2.42;;
12896;SDS011;6516;35.028;32.372;2024-01-30T07:27:36;7.07;;;2.13;;
12896;SDS011;6516;35.028;32.372;2024-01-30T07:30:09;6.10;;;2.77;;
12896;SDS011;6516;35.028;32.372;2024-01-30T07:32:43;5.47;;;2.50;;
12896;SDS011;6516;35.028;32.372;2024-01-30T07:35:12;4.72;;;1.80;;
12896;SDS011;6516;35.028;32.372;2024-01-30T07:37:47;6.65;;;2.10;;
12896;SDS011;6516;35.028;32.372;2024-01-30T07:40:27;4.90;;;1.70;;
12896;SDS011;6516;35.028;32.372;2024-01-30T07:43:04;3.97;;;1.70;;
12896;SDS011;6516;35.028;32.372;2024-01-30T07:45:36;5.22;;;1.50;;
12896;SDS011;6516;35.028;32.372;2024-01-30T07:48:06;4.85;;;1.80;;
12896;SDS011;6516;35.028;32.372;2024-01-30T07:50:34;4.75;;;1.70;;
12896;SDS011;6516;35.028;32.372;2024-01-30T07:53:06;5.00;;;1.55;;
12896;SDS011;6516;35.028;32.372;2024-01-30T07:55:36;4.57;;;1.90;;
12896;SDS011;6516;35.028;32.372;2024-01-30T07:58:05;4.72;;;1.60;;
12896;SDS011;6516;35.028;32.372;2024-01-30T08:00:39;5.78;;;1.60;;
12896;SDS011;6516;35.028;32.372;2024-01-30T08:03:16;5.93;;;1.70;;
12896;SDS011;6516;35.028;32.372;2024-01-30T08:05:44;7.78;;;1.80;;
12896;SDS011;6516;35.028;32.372;2024-01-30T08:08:14;6.47;;;1.70;;
12896;SDS011;6516;35.028;32.372;2024-01-30T08:10:45;4.03;;;1.45;;
12896;SDS011;6516;35.028;32.372;2024-01-30T08:13:19;4.38;;;1.42;;
12896;SDS011;6516;35.028;32.372;2024-01-30T08:15:54;3.78;;;1.30;;
12896;SDS011;6516;35.028;32.372;2024-01-30T08:18:26;5.25;;;1.30;;
12896;SDS011;6516;35.028;32.372;2024-01-30T08:20:59;4.23;;;1.30;;
12896;SDS011;6516;35.028;32.372;2024-01-30T08:23:39;4.35;;;1.40;;
12896;SDS011;6516;35.028;32.372;2024-01-30T08:26:09;3.50;;;1.33;;
12896;SDS011;6516;35.028;32.372;2024-01-30T08:28:46;4.00;;;1.13;;
12896;SDS011;6516;35.028;32.372;2024-01-30T08:31:22;5.30;;;1.65;;
12896;SDS011;6516;35.028;32.372;2024-01-30T08:33:52;4.73;;;1.60;;
12896;SDS011;6516;35.028;32.372;2024-01-30T08:36:26;5.63;;;1.30;;
12896;SDS011;6516;35.028;32.372;2024-01-30T08:38:54;7.07;;;1.63;;
12896;SDS011;6516;35.028;32.372;2024-01-30T08:41:27;5.70;;;1.40;;
12896;SDS011;6516;35.028;32.372;2024-01-30T08:44:02;5.55;;;1.38;;
12896;SDS011;6516;35.028;32.372;2024-01-30T08:46:33;3.43;;;1.40;;
12896;SDS011;6516;35.028;32.372;2024-01-30T08:49:01;3.25;;;1.25;;
12896;SDS011;6516;35.028;32.372;2024-01-30T08:51:31;3.47;;;1.20;;
12896;SDS011;6516;35.028;32.372;2024-01-30T08:54:03;3.05;;;1.30;;
12896;SDS011;6516;35.028;32.372;2024-01-30T08:56:43;4.70;;;1.48;;
12896;SDS011;6516;35.028;32.372;2024-01-30T08:59:31;4.30;;;1.37;;
12896;SDS011;6516;35.028;32.372;2024-01-30T09:02:04;3.92;;;1.38;;
12896;SDS011;6516;35.028;32.372;2024-01-30T09:04:32;2.90;;;1.20;;
12896;SDS011;6516;35.028;32.372;2024-01-30T09:07:05;6.35;;;1.40;;
12896;SDS011;6516;35.028;32.372;2024-01-30T09:09:34;4.75;;;1.52;;
12896;SDS011;6516;35.028;32.372;2024-01-30T09:12:08;4.03;;;1.13;;
12896;SDS011;6516;35.028;32.372;2024-01-30T09:14:43;7.22;;;1.30;;
12896;SDS011;6516;35.028;32.372;2024-01-30T09:17:28;3.45;;;1.00;;
12896;SDS011;6516;35.028;32.372;2024-01-30T09:19:58;2.90;;;1.00;;
12896;SDS011;6516;35.028;32.372;2024-01-30T09:22:31;3.75;;;1.20;;
12896;SDS011;6516;35.028;32.372;2024-01-30T09:24:59;3.40;;;1.00;;
12896;SDS011;6516;35.028;32.372;2024-01-30T09:27:35;3.90;;;1.30;;
12896;SDS011;6516;35.028;32.372;2024-01-30T09:30:07;6.63;;;1.27;;
12896;SDS011;6516;35.028;32.372;2024-01-30T09:32:44;4.40;;;1.40;;
12896;SDS011;6516;35.028;32.372;2024-01-30T09:35:17;3.75;;;1.10;;
12896;SDS011;6516;35.028;32.372;2024-01-30T09:37:47;7.43;;;1.50;;
12896;SDS011;6516;35.028;32.372;2024-01-30T09:40:19;3.55;;;1.20;;
12896;SDS011;6516;35.028;32.372;2024-01-30T09:42:56;7.63;;;1.75;;
12896;SDS011;6516;35.028;32.372;2024-01-30T09:45:27;5.13;;;1.30;;
12896;SDS011;6516;35.028;32.372;2024-01-30T09:47:58;4.18;;;1.30;;
12896;SDS011;6516;35.028;32.372;2024-01-30T09:50:36;4.47;;;1.33;;
12896;SDS011;6516;35.028;32.372;2024-01-30T09:53:08;5.40;;;1.42;;
12896;SDS011;6516;35.028;32.372;2024-01-30T09:55:39;5.97;;;1.50;;
12896;SDS011;6516;35.028;32.372;2024-01-30T09:58:13;5.38;;;1.42;;
12896;SDS011;6516;35.028;32.372;2024-01-30T10:00:44;4.20;;;1.52;;
12896;SDS011;6516;35.028;32.372;2024-01-30T10:03:22;5.90;;;1.80;;
12896;SDS011;6516;35.028;32.372;2024-01-30T10:05:57;6.32;;;1.67;;
12896;SDS011;6516;35.028;32.372;2024-01-30T10:08:28;5.90;;;1.40;;
12896;SDS011;6516;35.028;32.372;2024-01-30T10:11:06;6.22;;;1.70;;
12896;SDS011;6516;35.028;32.372;2024-01-30T10:13:46;7.88;;;2.03;;
12896;SDS011;6516;35.028;32.372;2024-01-30T10:16:19;13.13;;;2.10;;
12896;SDS011;6516;35.028;32.372;2024-01-30T10:18:53;9.02;;;1.98;;
12896;SDS011;6516;35.028;32.372;2024-01-30T10:21:28;5.18;;;1.73;;
12896;SDS011;6516;35.028;32.372;2024-01-30T10:23:58;7.40;;;1.90;;
12896;SDS011;6516;35.028;32.372;2024-01-30T10:26:30;5.40;;;1.85;;
12896;SDS011;6516;35.028;32.372;2024-01-30T10:29:06;5.77;;;1.60;;
12896;SDS011;6516;35.028;32.372;2024-01-30T10:31:37;9.93;;;1.83;;
12896;SDS011;6516;35.028;32.372;2024-01-30T10:34:17;6.32;;;2.15;;
12896;SDS011;6516;35.028;32.372;2024-01-30T10:36:50;7.40;;;1.90;;
12896;SDS011;6516;35.028;32.372;2024-01-30T10:39:38;6.43;;;2.15;;
12896;SDS011;6516;35.028;32.372;2024-01-30T10:42:10;8.33;;;2.30;;
12896;SDS011;6516;35.028;32.372;2024-01-30T10:44:48;8.88;;;2.58;;
12896;SDS011;6516;35.028;32.372;2024-01-30T10:47:34;8.85;;;2.15;;
12896;SDS011;6516;35.028;32.372;2024-01-30T10:50:04;11.35;;;3.05;;
12896;SDS011;6516;35.028;32.372;2024-01-30T10:52:36;8.05;;;3.03;;
12896;SDS011;6516;35.028;32.372;2024-01-30T10:55:13;8.73;;;2.50;;
12896;SDS011;6516;35.028;32.372;2024-01-30T10:57:44;6.28;;;2.60;;
12896;SDS011;6516;35.028;32.372;2024-01-30T11:00:17;6.95;;;2.88;;
12896;SDS011;6516;35.028;32.372;2024-01-30T11:02:49;8.50;;;3.20;;
12896;SDS011;6516;35.028;32.372;2024-01-30T11:05:27;5.22;;;3.00;;
12896;SDS011;6516;35.028;32.372;2024-01-30T11:07:57;7.27;;;3.10;;
12896;SDS011;6516;35.028;32.372;2024-01-30T11:10:45;8.05;;;3.22;;
12896;SDS011;6516;35.028;32.372;2024-01-30T11:13:18;6.93;;;3.20;;
12896;SDS011;6516;35.028;32.372;2024-01-30T11:15:53;7.75;;;4.07;;
12896;SDS011;6516;35.028;32.372;2024-01-30T11:18:28;9.00;;;3.17;;
12896;SDS011;6516;35.028;32.372;2024-01-30T11:21:01;8.07;;;2.93;;
12896;SDS011;6516;35.028;32.372;2024-01-30T11:23:34;8.40;;;3.35;;
12896;SDS011;6516;35.028;32.372;2024-01-30T11:26:02;6.07;;;2.97;;
12896;SDS011;6516;35.028;32.372;2024-01-30T11:28:43;9.38;;;3.20;;
12896;SDS011;6516;35.028;32.372;2024-01-30T11:31:24;5.63;;;3.13;;
12896;SDS011;6516;35.028;32.372;2024-01-30T11:33:58;7.27;;;3.17;;
12896;SDS011;6516;35.028;32.372;2024-01-30T11:36:33;8.40;;;2.95;;
12896;SDS011;6516;35.028;32.372;2024-01-30T11:39:08;7.25;;;3.05;;
12896;SDS011;6516;35.028;32.372;2024-01-30T11:41:40;11.40;;;3.47;;
12896;SDS011;6516;35.028;32.372;2024-01-30T11:44:15;11.20;;;3.50;;
12896;SDS011;6516;35.028;32.372;2024-01-30T11:46:52;6.07;;;2.90;;
12896;SDS011;6516;35.028;32.372;2024-01-30T11:49:23;10.38;;;3.40;;
12896;SDS011;6516;35.028;32.372;2024-01-30T11:51:55;7.05;;;3.08;;
12896;SDS011;6516;35.028;32.372;2024-01-30T11:54:23;6.45;;;2.95;;
12896;SDS011;6516;35.028;32.372;2024-01-30T11:57:00;7.78;;;3.33;;
12896;SDS011;6516;35.028;32.372;2024-01-30T11:59:36;12.53;;;4.10;;
12896;SDS011;6516;35.028;32.372;2024-01-30T12:02:09;6.57;;;3.10;;
12896;SDS011;6516;35.028;32.372;2024-01-30T12:04:43;9.48;;;3.55;;
12896;SDS011;6516;35.028;32.372;2024-01-30T12:07:17;6.85;;;3.22;;
12896;SDS011;6516;35.028;32.372;2024-01-30T12:09:52;10.52;;;3.45;;
12896;SDS011;6516;35.028;32.372;2024-01-30T12:12:27;8.70;;;3.07;;
12896;SDS011;6516;35.028;32.372;2024-01-30T12:15:07;7.60;;;3.38;;
12896;SDS011;6516;35.028;32.372;2024-01-30T12:17:35;9.18;;;3.45;;
12896;SDS011;6516;35.028;32.372;2024-01-30T12:20:13;7.75;;;3.17;;
12896;SDS011;6516;35.028;32.372;2024-01-30T12:22:48;7.82;;;2.80;;
12896;SDS011;6516;35.028;32.372;2024-01-30T12:25:22;8.00;;;3.20;;
12896;SDS011;6516;35.028;32.372;2024-01-30T12:27:50;6.35;;;2.72;;
12896;SDS011;6516;35.028;32.372;2024-01-30T12:30:23;6.38;;;2.92;;
12896;SDS011;6516;35.028;32.372;2024-01-30T12:33:09;9.45;;;2.65;;
12896;SDS011;6516;35.028;32.372;2024-01-30T12:35:48;6.30;;;2.05;;
12896;SDS011;6516;35.028;32.372;2024-01-30T12:38:19;6.27;;;2.57;;
12896;SDS011;6516;35.028;32.372;2024-01-30T12:40:50;6.70;;;2.28;;
12896;SDS011;6516;35.028;32.372;2024-01-30T12:43:21;7.90;;;2.22;;
12896;SDS011;6516;35.028;32.372;2024-01-30T12:45:58;6.55;;;2.33;;
12896;SDS011;6516;35.028;32.372;2024-01-30T12:48:29;9.23;;;2.25;;
12896;SDS011;6516;35.028;32.372;2024-01-30T12:51:03;8.13;;;2.60;;
12896;SDS011;6516;35.028;32.372;2024-01-30T12:53:41;9.93;;;2.40;;
12896;SDS011;6516;35.028;32.372;2024-01-30T12:56:13;4.63;;;2.08;;
12896;SDS011;6516;35.028;32.372;2024-01-30T12:58:44;7.25;;;2.10;;
12896;SDS011;6516;35.028;32.372;2024-01-30T13:01:15;8.48;;;1.90;;
12896;SDS011;6516;35.028;32.372;2024-01-30T13:03:46;7.40;;;1.90;;
12896;SDS011;6516;35.028;32.372;2024-01-30T13:06:21;4.07;;;1.60;;
12896;SDS011;6516;35.028;32.372;2024-01-30T13:08:50;5.10;;;1.27;;
12896;SDS011;6516;35.028;32.372;2024-01-30T13:11:26;4.75;;;1.40;;
12896;SDS011;6516;35.028;32.372;2024-01-30T13:14:06;4.95;;;1.48;;
12896;SDS011;6516;35.028;32.372;2024-01-30T13:16:40;7.03;;;1.43;;
12896;SDS011;6516;35.028;32.372;2024-01-30T13:19:27;3.15;;;1.20;;
12896;SDS011;6516;35.028;32.372;2024-01-30T13:22:01;3.78;;;1.20;;
12896;SDS011;6516;35.028;32.372;2024-01-30T13:24:33;4.10;;;1.30;;
12896;SDS011;6516;35.028;32.372;2024-01-30T13:27:06;5.57;;;1.10;;
12896;SDS011;6516;35.028;32.372;2024-01-30T13:29:45;3.93;;;1.10;;
12896;SDS011;6516;35.028;32.372;2024-01-30T13:32:24;5.13;;;1.15;;
12896;SDS011;6516;35.028;32.372;2024-01-30T13:35:01;4.53;;;1.48;;
12896;SDS011;6516;35.028;32.372;2024-01-30T13:37:31;6.00;;;1.30;;
12896;SDS011;6516;35.028;32.372;2024-01-30T13:40:08;5.18;;;1.55;;
12896;SDS011;6516;35.028;32.372;2024-01-30T13:42:39;4.87;;;1.23;;
12896;SDS011;6516;35.028;32.372;2024-01-30T13:45:14;5.20;;;1.40;;
12896;SDS011;6516;35.028;32.372;2024-01-30T13:47:46;5.13;;;1.45;;
12896;SDS011;6516;35.028;32.372;2024-01-30T13:50:21;5.82;;;1.25;;
12896;SDS011;6516;35.028;32.372;2024-01-30T13:52:49;4.78;;;1.48;;
12896;SDS011;6516;35.028;32.372;2024-01-30T13:55:25;11.57;;;2.13;;
12896;SDS011;6516;35.028;32.372;2024-01-30T13:58:02;14.57;;;2.30;;
12896;SDS011;6516;35.028;32.372;2024-01-30T14:00:30;12.25;;;2.30;;
12896;SDS011;6516;35.028;32.372;2024-01-30T14:03:00;8.02;;;2.08;;
12896;SDS011;6516;35.028;32.372;2024-01-30T14:05:33;6.97;;;1.67;;
12896;SDS011;6516;35.028;32.372;2024-01-30T14:08:05;7.80;;;1.80;;
12896;SDS011;6516;35.028;32.372;2024-01-30T14:10:37;7.80;;;1.92;;
12896;SDS011;6516;35.028;32.372;2024-01-30T14:13:10;10.45;;;2.28;;
12896;SDS011;6516;35.028;32.372;2024-01-30T14:15:47;7.55;;;1.90;;
12896;SDS011;6516;35.028;32.372;2024-01-30T14:18:23;8.32;;;2.10;;
12896;SDS011;6516;35.028;32.372;2024-01-30T14:21:02;8.47;;;2.07;;
12896;SDS011;6516;35.028;32.372;2024-01-30T14:23:33;10.35;;;2.38;;
12896;SDS011;6516;35.028;32.372;2024-01-30T14:26:13;5.75;;;1.50;;
12896;SDS011;6516;35.028;32.372;2024-01-30T14:28:43;5.32;;;1.77;;
12896;SDS011;6516;35.028;32.372;2024-01-30T14:31:17;5.78;;;1.73;;
12896;SDS011;6516;35.028;32.372;2024-01-30T14:33:49;6.53;;;2.10;;
12896;SDS011;6516;35.028;32.372;2024-01-30T14:36:17;5.95;;;2.28;;
12896;SDS011;6516;35.028;32.372;2024-01-30T14:38:51;5.57;;;2.28;;
12896;SDS011;6516;35.028;32.372;2024-01-30T14:41:27;6.70;;;2.30;;
12896;SDS011;6516;35.028;32.372;2024-01-30T14:43:55;6.57;;;2.22;;
12896;SDS011;6516;35.028;32.372;2024-01-30T14:46:28;8.83;;;2.13;;
12896;SDS011;6516;35.028;32.372;2024-01-30T14:48:58;5.63;;;2.38;;
12896;SDS011;6516;35.028;32.372;2024-01-30T14:51:30;4.82;;;1.90;;
12896;SDS011;6516;35.028;32.372;2024-01-30T14:54:03;4.13;;;1.50;;
12896;SDS011;6516;35.028;32.372;2024-01-30T14:56:35;4.18;;;1.55;;
12896;SDS011;6516;35.028;32.372;2024-01-30T14:59:03;4.80;;;1.40;;
12896;SDS011;6516;35.028;32.372;2024-01-30T15:01:40;7.78;;;1.40;;
12896;SDS011;6516;35.028;32.372;2024-01-30T15:04:08;5.18;;;1.70;;
12896;SDS011;6516;35.028;32.372;2024-01-30T15:06:42;5.80;;;1.40;;
12896;SDS011;6516;35.028;32.372;2024-01-30T15:09:20;4.30;;;1.73;;
12896;SDS011;6516;35.028;32.372;2024-01-30T15:11:53;4.43;;;1.53;;
12896;SDS011;6516;35.028;32.372;2024-01-30T15:14:25;6.07;;;1.70;;
12896;SDS011;6516;35.028;32.372;2024-01-30T15:16:54;5.47;;;1.60;;
12896;SDS011;6516;35.028;32.372;2024-01-30T15:19:31;4.93;;;1.80;;
12896;SDS011;6516;35.028;32.372;2024-01-30T15:21:59;4.05;;;1.70;;
12896;SDS011;6516;35.028;32.372;2024-01-30T15:24:29;5.93;;;1.70;;
12896;SDS011;6516;35.028;32.372;2024-01-30T15:26:59;6.53;;;1.55;;